Billstown, Arkansas
Current Conditions -  °F | °C
As of 6:53 PM on Tuesday 21 Oct 2014 (Local Time) from KMWT Reporting Station
Clear Clear  
Wind Chill: 65°   Ceiling: Unl
Heat Index: 65°   Visibility: 10mi
Dew Point: 61°   Wind: 0mph
Humidity: 87%   Direction: NA
Pressure: 30.04"   Gusts: NA
Location:  34.0925°N, 93.718°W
Report Text: KMWT 212353Z AUTO 00000KT 10SM CLR 18/16 A3004 RMK AO2 SLP168 T01830161 10261 20183 55001
Loading
Personal Weather Stations






























Interactive Weather Map
Tropical Storm Tracking
New forecast layout! Learn more

10-Day Weather Forecast

Advertisements
Track Severe Weather on mobile